createdAt,value
2022-11-18T00:01:18.954Z,94336.69
2022-11-18T00:03:45.548Z,94338.91
2022-11-18T00:06:16.083Z,94334.50
2022-11-18T00:08:42.873Z,94337.31
2022-11-18T00:11:33.822Z,94338.94
2022-11-18T00:14:18.855Z,94329.47
2022-11-18T00:16:45.831Z,94332.06
2022-11-18T00:19:12.201Z,94326.25
2022-11-18T00:21:38.630Z,94318.56
2022-11-18T00:24:05.207Z,94328.25
2022-11-18T00:26:31.657Z,94329.28
2022-11-18T00:28:58.073Z,94328.44
2022-11-18T00:31:24.561Z,94324.81
2022-11-18T00:33:50.976Z,94324.25
2022-11-18T00:36:17.514Z,94332.88
2022-11-18T00:38:43.921Z,94325.63
2022-11-18T00:41:11.581Z,94318.78
2022-11-18T00:43:38.046Z,94316.97
2022-11-18T00:46:05.615Z,94314.75
2022-11-18T00:48:32.274Z,94310.34
2022-11-18T00:50:59.836Z,94312.75
2022-11-18T00:53:27.063Z,94302.91
2022-11-18T00:55:53.592Z,94312.34
2022-11-18T00:58:20.087Z,94305.72
2022-11-18T01:00:48.787Z,94305.09
2022-11-18T01:03:15.233Z,94304.91
2022-11-18T01:05:41.781Z,94300.28
2022-11-18T01:08:09.008Z,94294.66
2022-11-18T01:10:35.804Z,94297.06
2022-11-18T01:13:20.275Z,94296.22
2022-11-18T01:15:49.619Z,94283.34
2022-11-18T01:18:16.945Z,94278.72
2022-11-18T01:20:43.432Z,94279.94
2022-11-18T01:23:09.929Z,94282.34
2022-11-18T01:25:37.443Z,94283.94
2022-11-18T01:28:04.447Z,94288.19
2022-11-18T01:30:32.999Z,94285.75
2022-11-18T01:32:59.430Z,94282.53
2022-11-18T01:35:25.911Z,94285.34
2022-11-18T01:37:52.523Z,94274.28
2022-11-18T01:40:18.937Z,94268.44
2022-11-18T01:42:45.419Z,94274.91
2022-11-18T01:45:17.704Z,94280.34
2022-11-18T01:47:48.236Z,94272.53
2022-11-18T01:50:16.679Z,94268.88
2022-11-18T01:52:47.410Z,94272.09
2022-11-18T01:55:18.708Z,94272.09
2022-11-18T01:57:48.121Z,94258.22
2022-11-18T02:00:14.760Z,94272.94
2022-11-18T02:02:41.846Z,94255.00
2022-11-18T02:05:10.720Z,94258.22
2022-11-18T02:07:42.925Z,94266.50
2022-11-18T02:10:10.653Z,94262.03
2022-11-18T02:12:37.394Z,94259.84
2022-11-18T02:15:04.091Z,94265.25
2022-11-18T02:17:36.351Z,94262.47
2022-11-18T02:20:08.677Z,94269.91
2022-11-18T02:22:53.232Z,94256.84
2022-11-18T02:25:38.565Z,94259.03
2022-11-18T02:28:08.112Z,94253.59
2022-11-18T02:30:39.686Z,94231.66
2022-11-18T02:33:15.887Z,94239.31
2022-11-18T02:35:53.513Z,94240.94
2022-11-18T02:38:24.443Z,94234.09
2022-11-18T02:41:01.282Z,94230.28
2022-11-18T02:43:31.105Z,94222.81
2022-11-18T02:46:01.088Z,94219.16
2022-11-18T02:48:30.045Z,94221.59
2022-11-18T02:50:57.933Z,94210.72
2022-11-18T02:53:25.556Z,94212.91
2022-11-18T02:55:52.709Z,94210.91
2022-11-18T02:58:20.470Z,94200.44
2022-11-18T03:00:53.496Z,94198.63
2022-11-18T03:03:28.798Z,94198.81
2022-11-18T03:05:55.188Z,94201.66
2022-11-18T03:08:25.919Z,94207.31
2022-11-18T03:11:14.336Z,94205.28
2022-11-18T03:13:51.553Z,94219.16
2022-11-18T03:16:22.209Z,94210.91
2022-11-18T03:18:54.111Z,94220.34
2022-11-18T03:21:32.041Z,94213.69
2022-11-18T03:24:05.389Z,94212.50
2022-11-18T03:26:33.154Z,94218.78
2022-11-18T03:29:06.702Z,94218.59
2022-11-18T03:31:39.365Z,94221.41
2022-11-18T03:34:18.103Z,94217.34
2022-11-18T03:36:51.946Z,94208.88
2022-11-18T03:39:20.048Z,94215.38
2022-11-18T03:41:50.307Z,94212.16
2022-11-18T03:44:36.611Z,94219.19
2022-11-18T03:47:14.851Z,94209.38
2022-11-18T03:49:51.046Z,94216.00
2022-11-18T03:52:20.382Z,94208.16
2022-11-18T03:54:48.545Z,94217.81
2022-11-18T03:57:18.231Z,94206.16
2022-11-18T04:00:03.517Z,94201.94
2022-11-18T04:02:30.867Z,94197.31
2022-11-18T04:04:58.379Z,94193.25
2022-11-18T04:07:24.824Z,94195.28
2022-11-18T04:09:57.476Z,94186.22
2022-11-18T04:12:26.397Z,94186.59
2022-11-18T04:14:55.543Z,94190.44
2022-11-18T04:17:23.608Z,94188.59
2022-11-18T04:19:50.252Z,94193.22
2022-11-18T04:22:17.818Z,94172.25
2022-11-18T04:24:44.229Z,94170.84
2022-11-18T04:27:11.295Z,94180.31
2022-11-18T04:29:37.807Z,94185.34
2022-11-18T04:32:04.761Z,94179.13
2022-11-18T04:34:31.417Z,94168.25
2022-11-18T04:36:58.606Z,94172.06
2022-11-18T04:39:25.007Z,94175.47
2022-11-18T04:41:57.524Z,94164.59
2022-11-18T04:44:25.070Z,94155.75
2022-11-18T04:46:52.096Z,94151.94
2022-11-18T04:49:18.845Z,94156.56
2022-11-18T04:51:45.539Z,94150.34
2022-11-18T04:54:12.413Z,94146.69
2022-11-18T04:56:42.795Z,94158.97
2022-11-18T04:59:12.745Z,94151.69
2022-11-18T05:01:39.467Z,94153.56
2022-11-18T05:04:06.612Z,94161.00
2022-11-18T05:06:33.603Z,94163.44
2022-11-18T05:09:00.985Z,94169.25
2022-11-18T05:11:46.640Z,94167.63
2022-11-18T05:14:13.364Z,94166.63
2022-11-18T05:16:39.907Z,94175.47
2022-11-18T05:19:06.738Z,94171.81
2022-11-18T05:21:33.232Z,94170.22
2022-11-18T05:23:59.996Z,94175.91
2022-11-18T05:26:26.414Z,94178.50
2022-11-18T05:28:52.839Z,94173.06
2022-11-18T05:31:19.296Z,94180.13
2022-11-18T05:33:45.838Z,94183.38
2022-11-18T05:36:13.307Z,94183.19
2022-11-18T05:38:39.943Z,94188.81
2022-11-18T05:41:06.803Z,94186.00
2022-11-18T05:43:33.765Z,94197.47
2022-11-18T05:46:00.167Z,94194.44
2022-11-18T05:48:26.644Z,94190.00
2022-11-18T05:50:53.991Z,94200.66
2022-11-18T05:53:21.792Z,94208.91
2022-11-18T05:55:53.421Z,94205.47
2022-11-18T05:58:19.862Z,94208.13
2022-11-18T06:00:47.841Z,94208.72
2022-11-18T06:03:19.011Z,94206.75
2022-11-18T06:05:45.597Z,94212.38
2022-11-18T06:08:13.202Z,94218.22
2022-11-18T06:10:41.982Z,94219.59
2022-11-18T06:13:09.710Z,94221.22
2022-11-18T06:15:38.848Z,94225.25
2022-11-18T06:18:13.189Z,94233.50
2022-11-18T06:20:40.732Z,94230.88
2022-11-18T06:23:07.158Z,94223.59
2022-11-18T06:25:33.934Z,94219.38
2022-11-18T06:28:01.838Z,94218.19
2022-11-18T06:30:28.245Z,94205.91
2022-11-18T06:32:54.702Z,94200.47
2022-11-18T06:35:21.236Z,94205.09
2022-11-18T06:37:47.701Z,94200.25
2022-11-18T06:40:14.207Z,94207.31
2022-11-18T06:42:59.342Z,94212.72
2022-11-18T06:45:25.952Z,94224.59
2022-11-18T06:47:56.315Z,94215.13
2022-11-18T06:50:22.752Z,94224.41
2022-11-18T06:52:49.140Z,94215.34
2022-11-18T06:55:15.555Z,94216.56
2022-11-18T06:57:41.950Z,94209.94
2022-11-18T07:00:08.640Z,94205.31
2022-11-18T07:02:38.490Z,94196.06
2022-11-18T07:05:06.279Z,94203.31
2022-11-18T07:07:40.348Z,94205.31
2022-11-18T07:10:08.663Z,94208.53
2022-11-18T07:12:36.268Z,94212.94
2022-11-18T07:15:02.770Z,94206.06
2022-11-18T07:17:30.223Z,94204.44
2022-11-18T07:19:56.611Z,94198.41
2022-11-18T07:22:23.034Z,94205.63
2022-11-18T07:24:49.511Z,94197.81
2022-11-18T07:27:15.920Z,94204.84
2022-11-18T07:29:42.321Z,94202.84
2022-11-18T07:32:08.804Z,94204.88
2022-11-18T07:34:35.227Z,94204.06
2022-11-18T07:37:01.660Z,94206.06
2022-11-18T07:39:28.091Z,94203.22
2022-11-18T07:41:54.471Z,94197.81
2022-11-18T07:44:20.879Z,94206.06
2022-11-18T07:46:47.293Z,94208.50
2022-11-18T07:49:13.836Z,94205.09
2022-11-18T07:51:40.776Z,94204.09
2022-11-18T07:54:11.115Z,94194.44
2022-11-18T07:56:37.840Z,94197.47
2022-11-18T07:59:04.715Z,94193.41
2022-11-18T08:01:31.532Z,94197.66
2022-11-18T08:04:03.964Z,94200.84
2022-11-18T08:06:32.086Z,94199.44
2022-11-18T08:08:58.465Z,94201.44
2022-11-18T08:11:24.861Z,94197.44
2022-11-18T08:13:51.491Z,94193.41
2022-11-18T08:16:22.294Z,94190.81
2022-11-18T08:18:48.895Z,94183.94
2022-11-18T08:21:16.240Z,94177.88
2022-11-18T08:23:43.098Z,94177.69
2022-11-18T08:26:15.427Z,94180.31
2022-11-18T08:28:42.684Z,94162.78
2022-11-18T08:31:13.613Z,94163.97
2022-11-18T08:33:40.288Z,94194.41
2022-11-18T08:36:07.676Z,94196.41
2022-11-18T08:38:34.071Z,94201.88
2022-11-18T08:41:00.562Z,94202.69
2022-11-18T08:43:26.951Z,94215.97
2022-11-18T08:45:53.330Z,94212.56
2022-11-18T08:48:19.728Z,94221.44
2022-11-18T08:50:46.194Z,94237.91
2022-11-18T08:53:12.563Z,94252.41
2022-11-18T08:55:38.969Z,94229.88
2022-11-18T08:58:05.369Z,94222.22
2022-11-18T09:00:31.733Z,94234.50
2022-11-18T09:02:58.117Z,94233.91
2022-11-18T09:05:24.492Z,94225.47
2022-11-18T09:07:51.057Z,94221.84
2022-11-18T09:10:17.532Z,94224.84
2022-11-18T09:12:43.926Z,94223.84
2022-11-18T09:15:14.822Z,94231.47
2022-11-18T09:17:42.004Z,94227.47
2022-11-18T09:20:08.729Z,94236.72
2022-11-18T09:22:36.424Z,94241.31
2022-11-18T09:25:02.818Z,94239.31
2022-11-18T09:27:29.251Z,94247.16
2022-11-18T09:29:55.651Z,94242.13
2022-11-18T09:32:22.032Z,94239.94
2022-11-18T09:34:48.686Z,94222.66
2022-11-18T09:37:15.103Z,94217.00
2022-11-18T09:39:41.550Z,94225.25
2022-11-18T09:42:23.765Z,94223.66
2022-11-18T09:45:11.802Z,94229.88
2022-11-18T09:47:39.975Z,94220.22
2022-11-18T09:50:49.057Z,94231.09
2022-11-18T09:53:18.157Z,94217.38
2022-11-18T09:55:44.968Z,94197.69
2022-11-18T09:58:17.265Z,94212.97
2022-11-18T10:00:44.360Z,94203.31
2022-11-18T10:03:25.610Z,94207.53
2022-11-18T10:05:55.105Z,94201.47
2022-11-18T10:08:21.827Z,94205.31
2022-11-18T10:10:51.313Z,94208.09
2022-11-18T10:13:27.220Z,94203.44
2022-11-18T10:15:59.143Z,94217.34
2022-11-18T10:21:24.269Z,94205.69
2022-11-18T10:23:50.622Z,94194.81
2022-11-18T10:26:30.493Z,94208.53
2022-11-18T10:28:57.701Z,94232.09
2022-11-18T10:31:24.109Z,94217.78
2022-11-18T10:33:58.131Z,94216.22
2022-11-18T10:36:24.518Z,94214.59
2022-11-18T10:39:04.930Z,94215.41
2022-11-18T10:41:38.097Z,94207.97
2022-11-18T10:44:09.317Z,94215.81
2022-11-18T10:46:41.271Z,94222.25
2022-11-18T10:49:10.798Z,94236.28
2022-11-18T10:51:38.517Z,94209.34
2022-11-18T10:54:16.018Z,94214.00
2022-11-18T10:56:45.808Z,94220.03
2022-11-18T10:59:19.355Z,94214.19
2022-11-18T11:01:57.072Z,94210.16
2022-11-18T11:04:24.924Z,94204.94
2022-11-18T11:06:51.444Z,94221.03
2022-11-18T11:09:26.922Z,94235.88
2022-11-18T11:12:04.531Z,94230.25
2022-11-18T11:14:43.962Z,94228.66
2022-11-18T11:17:10.629Z,94232.25
2022-11-18T11:20:00.863Z,94242.91
2022-11-18T11:22:28.287Z,94233.81
2022-11-18T11:24:55.921Z,94240.66
2022-11-18T11:30:23.642Z,94241.84
2022-11-18T11:32:52.705Z,94245.50
2022-11-18T11:35:23.265Z,94233.88
2022-11-18T11:37:55.553Z,94233.06
2022-11-18T11:40:29.489Z,94233.84
2022-11-18T11:43:16.543Z,94250.09
2022-11-18T11:45:52.067Z,94232.00
2022-11-18T11:48:23.664Z,94236.41
2022-11-18T11:51:04.970Z,94243.03
2022-11-18T11:53:50.561Z,94248.19
2022-11-18T11:56:21.237Z,94243.19
2022-11-18T11:58:55.025Z,94237.38
2022-11-18T12:01:40.318Z,94235.75
2022-11-18T12:04:12.855Z,94247.81
2022-11-18T12:06:39.309Z,94246.44
2022-11-18T12:09:22.378Z,94242.59
2022-11-18T12:12:29.012Z,94231.81
2022-11-18T12:14:59.239Z,94238.84
2022-11-18T12:17:32.140Z,94240.69
2022-11-18T12:19:58.528Z,94240.69
2022-11-18T12:22:44.850Z,94241.50
2022-11-18T12:25:31.173Z,94248.31
2022-11-18T12:28:00.639Z,94251.97
2022-11-18T12:30:27.258Z,94245.53
2022-11-18T12:32:56.980Z,94250.53
2022-11-18T12:35:28.443Z,94254.56
2022-11-18T12:37:54.810Z,94260.00
2022-11-18T12:40:31.866Z,94255.41
2022-11-18T12:43:17.047Z,94271.91
2022-11-18T12:45:44.302Z,94253.78
2022-11-18T12:48:30.646Z,94243.56
2022-11-18T12:50:58.060Z,94244.94
2022-11-18T12:53:36.461Z,94251.38
2022-11-18T12:56:21.155Z,94260.84
2022-11-18T12:58:52.249Z,94256.81
2022-11-18T13:01:21.287Z,94268.88
2022-11-18T13:03:47.743Z,94262.44
2022-11-18T13:06:22.049Z,94272.25
2022-11-18T13:08:57.758Z,94269.25
2022-11-18T13:11:43.779Z,94275.88
2022-11-18T13:14:46.868Z,94276.84
2022-11-18T13:17:51.112Z,94271.03
2022-11-18T13:20:23.303Z,94270.81
2022-11-18T13:23:19.023Z,94283.28
2022-11-18T13:25:45.993Z,94275.66
2022-11-18T13:28:23.372Z,94282.09
2022-11-18T13:30:54.685Z,94284.09
2022-11-18T13:33:21.127Z,94285.72
2022-11-18T13:35:47.526Z,94271.63
2022-11-18T13:38:24.391Z,94270.25
2022-11-18T13:41:08.315Z,94269.25
2022-11-18T13:43:35.388Z,94271.25
2022-11-18T13:46:04.442Z,94270.47
2022-11-18T13:48:31.337Z,94274.47
2022-11-18T13:50:59.427Z,94276.88
2022-11-18T13:53:30.571Z,94278.91
2022-11-18T13:56:08.245Z,94289.34
2022-11-18T13:59:10.249Z,94282.50
2022-11-18T14:01:27.665Z,94296.56
2022-11-18T14:04:01.473Z,94286.50
2022-11-18T14:06:29.242Z,94298.91
2022-11-18T14:09:04.705Z,94290.63
2022-11-18T14:11:35.584Z,94294.19
2022-11-18T14:14:02.086Z,94302.41
2022-11-18T14:16:36.068Z,94312.41
2022-11-18T14:19:02.545Z,94311.88
2022-11-18T14:21:30.464Z,94314.38
2022-11-18T14:23:57.246Z,94304.13
2022-11-18T14:26:28.295Z,94308.59
2022-11-18T14:28:55.968Z,94316.59
2022-11-18T14:31:24.747Z,94317.78
2022-11-18T14:34:09.945Z,94313.25
2022-11-18T14:36:36.333Z,94314.91
2022-11-18T14:39:25.971Z,94321.66
2022-11-18T14:41:53.832Z,94324.91
2022-11-18T14:44:21.469Z,94338.09
2022-11-18T14:47:10.921Z,94332.81
2022-11-18T14:49:37.536Z,94328.59
2022-11-18T14:52:04.656Z,94337.78
2022-11-18T14:54:31.522Z,94340.66
2022-11-18T14:57:00.265Z,94340.31
2022-11-18T14:59:26.813Z,94342.53
2022-11-18T15:01:53.395Z,94335.72
2022-11-18T15:04:21.939Z,94329.41
2022-11-18T15:06:48.628Z,94336.44
2022-11-18T15:09:15.179Z,94346.25
2022-11-18T15:11:41.574Z,94349.72
2022-11-18T15:14:07.953Z,94339.28
2022-11-18T15:16:35.267Z,94351.72
2022-11-18T15:19:03.277Z,94362.75
2022-11-18T15:21:30.259Z,94346.38
2022-11-18T15:23:56.789Z,94351.78
2022-11-18T15:26:25.910Z,94344.94
2022-11-18T15:28:53.590Z,94346.00
2022-11-18T15:31:20.482Z,94357.97
2022-11-18T15:33:48.491Z,94364.59
2022-11-18T15:36:19.908Z,94366.09
2022-11-18T15:38:46.733Z,94363.53
2022-11-18T15:41:17.559Z,94363.53
2022-11-18T15:43:44.901Z,94355.97
2022-11-18T15:46:11.289Z,94367.53
2022-11-18T15:48:37.802Z,94373.47
2022-11-18T15:51:11.463Z,94378.81
2022-11-18T15:53:39.094Z,94384.06
2022-11-18T15:56:14.830Z,94387.00
2022-11-18T15:58:41.426Z,94392.25
2022-11-18T16:01:07.836Z,94383.53
2022-11-18T16:03:34.723Z,94385.75
2022-11-18T16:06:01.126Z,94398.53
2022-11-18T16:08:27.533Z,94414.88
2022-11-18T16:11:15.604Z,94411.38
2022-11-18T16:13:42.243Z,94402.81
2022-11-18T16:16:08.719Z,94399.16
2022-11-18T16:18:37.930Z,94399.34
2022-11-18T16:21:07.067Z,94398.72
2022-11-18T16:23:33.430Z,94416.78
2022-11-18T16:26:00.134Z,94414.47
2022-11-18T16:28:27.278Z,94412.69
2022-11-18T16:31:12.462Z,94414.19
2022-11-18T16:33:38.885Z,94432.38
2022-11-18T16:36:05.415Z,94424.63
2022-11-18T16:38:31.779Z,94418.72
2022-11-18T16:40:58.933Z,94433.16
2022-11-18T16:43:25.507Z,94443.56
2022-11-18T16:45:54.782Z,94437.84
2022-11-18T16:48:22.079Z,94442.41
2022-11-18T16:51:26.974Z,94432.00
2022-11-18T16:53:54.239Z,94440.25
2022-11-18T16:56:21.661Z,94442.94
2022-11-18T16:58:48.476Z,94447.44
2022-11-18T17:01:20.039Z,94456.31
2022-11-18T17:03:49.846Z,94449.47
2022-11-18T17:06:16.222Z,94448.16
2022-11-18T17:08:42.630Z,94449.22
2022-11-18T17:11:09.610Z,94440.34
2022-11-18T17:13:37.056Z,94446.56
2022-11-18T17:16:16.737Z,94448.16
2022-11-18T17:18:43.438Z,94442.59
2022-11-18T17:21:11.160Z,94439.16
2022-11-18T17:23:38.164Z,94447.47
2022-11-18T17:26:05.197Z,94434.94
2022-11-18T17:28:32.549Z,94435.31
2022-11-18T17:31:04.453Z,94438.38
2022-11-18T17:33:30.805Z,94439.53
2022-11-18T17:36:16.656Z,94442.41
2022-11-18T17:38:44.266Z,94445.00
2022-11-18T17:41:31.602Z,94455.59
2022-11-18T17:43:58.388Z,94457.28
2022-11-18T17:46:24.849Z,94461.34
2022-11-18T17:49:01.419Z,94468.50
2022-11-18T17:51:29.360Z,94478.28
2022-11-18T17:53:56.162Z,94467.78
2022-11-18T17:56:22.979Z,94476.25
2022-11-18T17:58:49.852Z,94482.56
2022-11-18T18:01:17.151Z,94480.34
2022-11-18T18:03:43.631Z,94476.63
2022-11-18T18:06:11.072Z,94493.03
2022-11-18T18:08:37.750Z,94490.66
2022-11-18T18:11:05.929Z,94482.06
2022-11-18T18:13:51.073Z,94479.41
2022-11-18T18:16:17.509Z,94493.97
2022-11-18T18:18:44.048Z,94504.94
2022-11-18T18:21:13.010Z,94510.91
2022-11-18T18:23:39.950Z,94506.63
2022-11-18T18:26:07.321Z,94507.09
2022-11-18T18:28:34.178Z,94513.13
2022-11-18T18:31:05.489Z,94519.72
2022-11-18T18:33:32.627Z,94510.28
2022-11-18T18:36:02.860Z,94527.34
2022-11-18T18:38:32.116Z,94524.09
2022-11-18T18:41:17.728Z,94516.38
2022-11-18T18:43:44.384Z,94518.31
2022-11-18T18:46:31.892Z,94527.59
2022-11-18T18:49:03.025Z,94518.09
2022-11-18T18:51:30.669Z,94520.88
2022-11-18T18:53:57.583Z,94519.34
2022-11-18T18:56:24.056Z,94520.75
2022-11-18T18:58:50.476Z,94525.88
2022-11-18T19:01:17.756Z,94518.38
2022-11-18T19:03:44.439Z,94509.38
2022-11-18T19:06:41.915Z,94515.22
2022-11-18T19:09:01.339Z,94510.59
2022-11-18T19:11:46.429Z,94515.78
2022-11-18T19:14:14.201Z,94520.00
2022-11-18T19:16:40.785Z,94525.13
2022-11-18T19:19:07.890Z,94517.50
2022-11-18T19:21:34.961Z,94531.16
2022-11-18T19:24:05.080Z,94532.75
2022-11-18T19:26:34.557Z,94528.84
2022-11-18T19:29:01.414Z,94538.19
2022-11-18T19:31:27.830Z,94534.94
2022-11-18T19:33:54.443Z,94526.84
2022-11-18T19:36:21.062Z,94526.84
2022-11-18T19:38:50.314Z,94528.78
2022-11-18T19:41:16.951Z,94522.94
2022-11-18T19:43:43.389Z,94528.13
2022-11-18T19:46:09.821Z,94530.34
2022-11-18T19:48:36.243Z,94520.34
2022-11-18T19:51:05.510Z,94532.50
2022-11-18T19:53:31.995Z,94532.50
2022-11-18T19:56:02.491Z,94532.94
2022-11-18T19:58:30.977Z,94537.78
2022-11-18T20:00:57.470Z,94537.31
2022-11-18T20:03:23.922Z,94539.25
2022-11-18T20:05:53.132Z,94550.41
2022-11-18T20:08:20.415Z,94546.38
2022-11-18T20:10:47.339Z,94553.56
2022-11-18T20:13:14.923Z,94565.63
2022-11-18T20:15:41.748Z,94562.22
2022-11-18T20:18:08.250Z,94557.72
2022-11-18T20:20:34.965Z,94556.16
2022-11-18T20:23:01.567Z,94557.56
2022-11-18T20:25:28.146Z,94563.94
2022-11-18T20:27:54.903Z,94562.91
2022-11-18T20:30:21.615Z,94560.03
2022-11-18T20:32:48.188Z,94564.28
2022-11-18T20:35:14.875Z,94564.59
2022-11-18T20:37:44.604Z,94562.22
2022-11-18T20:40:11.685Z,94565.94
2022-11-18T20:42:56.670Z,94565.75
2022-11-18T20:45:23.319Z,94568.41
2022-11-18T20:47:49.755Z,94566.84
2022-11-18T20:50:16.278Z,94554.19
2022-11-18T20:52:42.658Z,94560.03
2022-11-18T20:55:10.012Z,94563.16
2022-11-18T20:57:36.460Z,94570.19
2022-11-18T21:00:03.010Z,94571.31
2022-11-18T21:02:29.879Z,94578.59
2022-11-18T21:04:56.260Z,94579.75
2022-11-18T21:07:22.906Z,94569.22
2022-11-18T21:09:50.470Z,94590.69
2022-11-18T21:12:16.849Z,94590.00
2022-11-18T21:14:43.238Z,94599.72
2022-11-18T21:17:09.728Z,94594.88
2022-11-18T21:19:36.134Z,94594.28
2022-11-18T21:22:02.535Z,94593.59
2022-11-18T21:24:30.017Z,94600.72
2022-11-18T21:26:57.822Z,94594.28
2022-11-18T21:29:25.877Z,94594.41
2022-11-18T21:31:52.484Z,94601.38
2022-11-18T21:34:19.346Z,94605.66
2022-11-18T21:36:50.359Z,94594.31
2022-11-18T21:39:19.842Z,94602.41
2022-11-18T21:41:50.642Z,94596.41
2022-11-18T21:44:20.340Z,94596.22
2022-11-18T21:46:46.723Z,94598.53
2022-11-18T21:49:13.130Z,94610.84
2022-11-18T21:51:39.544Z,94617.34
2022-11-18T21:54:06.013Z,94616.88
2022-11-18T21:56:32.534Z,94606.97
2022-11-18T21:58:59.963Z,94620.47
2022-11-18T22:01:27.746Z,94639.78
2022-11-18T22:03:58.343Z,94639.13
2022-11-18T22:06:25.498Z,94640.75
2022-11-18T22:08:52.338Z,94642.72
2022-11-18T22:11:20.353Z,94649.84
2022-11-18T22:13:46.822Z,94657.97
2022-11-18T22:16:14.695Z,94657.97
2022-11-18T22:18:42.264Z,94655.38
2022-11-18T22:21:16.206Z,94663.00
2022-11-18T22:23:42.822Z,94660.88
2022-11-18T22:26:13.964Z,94662.66
2022-11-18T22:28:40.532Z,94664.75
2022-11-18T22:31:09.190Z,94659.56
2022-11-18T22:33:35.635Z,94654.53
2022-11-18T22:36:06.248Z,94658.09
2022-11-18T22:38:33.100Z,94657.88
2022-11-18T22:41:01.490Z,94671.19
2022-11-18T22:43:29.338Z,94661.31
2022-11-18T22:46:02.819Z,94666.53
2022-11-18T22:48:29.212Z,94663.78
2022-11-18T22:50:56.467Z,94658.56
2022-11-18T22:53:22.844Z,94656.66
2022-11-18T22:55:49.225Z,94661.50
2022-11-18T22:58:15.692Z,94675.34
2022-11-18T23:00:42.144Z,94674.66
2022-11-18T23:03:08.530Z,94671.41
2022-11-18T23:05:35.973Z,94688.13
2022-11-18T23:08:02.410Z,94685.69
2022-11-18T23:10:30.270Z,94684.91
2022-11-18T23:13:15.099Z,94694.13
2022-11-18T23:15:41.774Z,94693.00
2022-11-18T23:18:11.593Z,94695.91
2022-11-18T23:20:38.490Z,94692.34
2022-11-18T23:23:04.856Z,94692.03
2022-11-18T23:25:31.698Z,94692.53
2022-11-18T23:27:58.121Z,94693.03
2022-11-18T23:30:24.490Z,94700.97
2022-11-18T23:32:52.415Z,94699.31
2022-11-18T23:35:18.798Z,94714.13
2022-11-18T23:37:45.190Z,94702.44
2022-11-18T23:40:11.845Z,94702.06
2022-11-18T23:42:38.206Z,94702.03
2022-11-18T23:45:05.579Z,94703.81
2022-11-18T23:47:32.103Z,94696.81
2022-11-18T23:49:58.491Z,94699.13
2022-11-18T23:52:24.876Z,94693.63
2022-11-18T23:54:53.040Z,94708.09
2022-11-18T23:57:19.501Z,94702.75
2022-11-18T23:59:45.978Z,94697.84
